createdAt,value
2022-10-01T00:02:01.931Z,91954.31
2022-10-01T00:04:29.014Z,91939.94
2022-10-01T00:06:59.309Z,91942.28
2022-10-01T00:09:26.562Z,91943.34
2022-10-01T00:11:53.531Z,91941.13
2022-10-01T00:14:20.197Z,91956.16
2022-10-01T00:16:46.931Z,91960.53
2022-10-01T00:19:17.417Z,91960.81
2022-10-01T00:21:44.137Z,91974.31
2022-10-01T00:24:12.805Z,91982.72
2022-10-01T00:26:39.566Z,91974.16
2022-10-01T00:29:11.499Z,91972.75
2022-10-01T00:31:38.898Z,91962.66
2022-10-01T00:34:06.560Z,91960.75
2022-10-01T00:36:34.419Z,91945.19
2022-10-01T00:39:01.987Z,91934.50
2022-10-01T00:41:31.709Z,91947.91
2022-10-01T00:44:01.917Z,91947.06
2022-10-01T00:46:34.006Z,91948.66
2022-10-01T00:49:07.079Z,91949.97
2022-10-01T00:51:42.332Z,91960.72
2022-10-01T00:54:13.364Z,91955.97
2022-10-01T00:56:42.269Z,91951.25
2022-10-01T00:59:10.399Z,91939.56
2022-10-01T01:01:38.967Z,91967.03
2022-10-01T01:04:16.567Z,91953.44
2022-10-01T01:07:04.473Z,91959.53
2022-10-01T01:09:43.704Z,91952.84
2022-10-01T01:12:48.382Z,91949.13
2022-10-01T01:15:24.070Z,91952.47
2022-10-01T01:18:20.192Z,91967.63
2022-10-01T01:21:05.159Z,91967.94
2022-10-01T01:23:42.259Z,91952.47
2022-10-01T01:26:31.991Z,91955.31
2022-10-01T01:29:04.768Z,91963.59
2022-10-01T01:31:39.798Z,91952.59
2022-10-01T01:34:12.407Z,91964.34
2022-10-01T01:36:45.435Z,91965.56
2022-10-01T01:39:15.263Z,91955.44
2022-10-01T01:41:50.275Z,91956.41
2022-10-01T01:44:20.072Z,91955.72
2022-10-01T01:46:49.441Z,91951.88
2022-10-01T01:49:20.234Z,91961.72
2022-10-01T01:52:03.537Z,91969.28
2022-10-01T01:54:31.515Z,91973.03
2022-10-01T01:56:59.094Z,91972.03
2022-10-01T01:59:27.298Z,91983.00
2022-10-01T02:01:54.259Z,91975.72
2022-10-01T02:04:25.793Z,91983.31
2022-10-01T02:07:06.921Z,91982.34
2022-10-01T02:09:39.855Z,91981.19
2022-10-01T02:12:30.361Z,91975.94
2022-10-01T02:15:02.456Z,91968.34
2022-10-01T02:17:38.748Z,91971.91
2022-10-01T02:20:18.630Z,91974.63
2022-10-01T02:22:59.399Z,91976.84
2022-10-01T02:25:31.466Z,91998.72
2022-10-01T02:28:01.627Z,91991.53
2022-10-01T02:30:32.274Z,91995.66
2022-10-01T02:33:01.102Z,91989.47
2022-10-01T02:35:32.001Z,91992.41
2022-10-01T02:38:01.964Z,91993.91
2022-10-01T02:40:31.687Z,92002.53
2022-10-01T02:43:09.523Z,92005.84
2022-10-01T02:45:40.431Z,91999.06
2022-10-01T02:48:11.245Z,91999.16
2022-10-01T02:50:49.453Z,92009.13
2022-10-01T02:53:37.170Z,91999.69
2022-10-01T02:56:05.791Z,92000.75
2022-10-01T02:58:32.497Z,91995.41
2022-10-01T03:00:59.202Z,91996.84
2022-10-01T03:03:26.219Z,91993.66
2022-10-01T03:05:52.940Z,91997.88
2022-10-01T03:08:20.048Z,91993.81
2022-10-01T03:10:47.068Z,92000.00
2022-10-01T03:13:13.995Z,91992.75
2022-10-01T03:15:40.709Z,91980.56
2022-10-01T03:18:07.397Z,91998.34
2022-10-01T03:20:33.991Z,91987.34
2022-10-01T03:23:00.683Z,91971.59
2022-10-01T03:25:27.373Z,91982.69
2022-10-01T03:27:54.214Z,91980.56
2022-10-01T03:30:22.135Z,91981.59
2022-10-01T03:32:48.732Z,91979.97
2022-10-01T03:35:15.458Z,91983.09
2022-10-01T03:37:42.051Z,91970.16
2022-10-01T03:40:09.108Z,91968.66
2022-10-01T03:42:35.785Z,91967.28
2022-10-01T03:45:02.512Z,91975.72
2022-10-01T03:47:29.103Z,91968.41
2022-10-01T03:49:55.747Z,91968.41
2022-10-01T03:52:22.823Z,91970.03
2022-10-01T03:54:49.430Z,91980.22
2022-10-01T03:57:16.181Z,91975.03
2022-10-01T03:59:42.946Z,91983.06
2022-10-01T04:02:09.777Z,91976.53
2022-10-01T04:04:36.540Z,91974.75
2022-10-01T04:07:03.181Z,91976.59
2022-10-01T04:09:29.904Z,91968.22
2022-10-01T04:11:56.533Z,91971.31
2022-10-01T04:14:23.198Z,91974.38
2022-10-01T04:16:52.431Z,91975.13
2022-10-01T04:19:20.270Z,91962.47
2022-10-01T04:21:47.002Z,91964.47
2022-10-01T04:24:13.641Z,91983.41
2022-10-01T04:26:40.319Z,91968.44
2022-10-01T04:29:07.158Z,91973.44
2022-10-01T04:31:35.596Z,91971.75
2022-10-01T04:34:03.442Z,91960.00
2022-10-01T04:36:30.123Z,91952.94
2022-10-01T04:39:01.689Z,91964.69
2022-10-01T04:41:31.122Z,91979.47
2022-10-01T04:44:00.024Z,91984.91
2022-10-01T04:46:30.210Z,91985.16
2022-10-01T04:48:57.226Z,91997.91
2022-10-01T04:51:24.383Z,91984.72
2022-10-01T04:53:51.110Z,91972.47
2022-10-01T04:56:17.704Z,91981.75
2022-10-01T04:58:44.470Z,91994.19
2022-10-01T05:01:11.160Z,92002.97
2022-10-01T05:03:37.807Z,92017.00
2022-10-01T05:06:04.605Z,92000.03
2022-10-01T05:08:31.284Z,92004.13
2022-10-01T05:10:59.833Z,91999.13
2022-10-01T05:13:30.169Z,92001.22
2022-10-01T05:15:57.742Z,91992.44
2022-10-01T05:18:25.170Z,91991.06
2022-10-01T05:20:52.321Z,91983.06
2022-10-01T05:23:18.966Z,91997.38
2022-10-01T05:25:47.032Z,91992.88
2022-10-01T05:28:17.158Z,91990.56
2022-10-01T05:30:47.863Z,91986.19
2022-10-01T05:33:14.565Z,91991.66
2022-10-01T05:35:41.409Z,91996.66
2022-10-01T05:38:08.205Z,92006.59
2022-10-01T05:40:34.890Z,91982.44
2022-10-01T05:43:03.143Z,91988.81
2022-10-01T05:45:31.488Z,91997.16
2022-10-01T05:48:02.288Z,91986.66
2022-10-01T05:50:31.763Z,91978.13
2022-10-01T05:52:59.369Z,91974.69
2022-10-01T05:55:26.118Z,91990.09
2022-10-01T05:57:57.387Z,91980.13
2022-10-01T06:00:27.650Z,91997.09
2022-10-01T06:02:55.291Z,91986.38
2022-10-01T06:05:22.753Z,91990.59
2022-10-01T06:07:50.328Z,91988.66
2022-10-01T06:10:17.701Z,91985.22
2022-10-01T06:12:44.637Z,91974.25
2022-10-01T06:15:14.297Z,91964.41
2022-10-01T06:17:45.239Z,91973.72
2022-10-01T06:20:14.076Z,91977.53
2022-10-01T06:22:42.989Z,91983.19
2022-10-01T06:25:15.251Z,91981.09
2022-10-01T06:27:42.637Z,91979.06
2022-10-01T06:30:10.419Z,91978.41
2022-10-01T06:32:37.749Z,91976.69
2022-10-01T06:35:04.677Z,91989.47
2022-10-01T06:37:31.368Z,91983.59
2022-10-01T06:39:57.989Z,91986.22
2022-10-01T06:42:25.022Z,91978.16
2022-10-01T06:44:51.630Z,91979.59
2022-10-01T06:47:18.300Z,91972.44
2022-10-01T06:49:47.639Z,91958.78
2022-10-01T06:52:33.129Z,91968.44
2022-10-01T06:55:01.619Z,91974.28
2022-10-01T06:57:29.172Z,91975.50
2022-10-01T06:59:55.934Z,91965.78
2022-10-01T07:02:32.465Z,91977.91
2022-10-01T07:04:59.431Z,91974.81
2022-10-01T07:07:33.808Z,91973.69
2022-10-01T07:10:00.668Z,91962.56
2022-10-01T07:12:27.698Z,91957.66
2022-10-01T07:14:54.745Z,91957.59
2022-10-01T07:17:22.810Z,91970.81
2022-10-01T07:19:49.583Z,91962.38
2022-10-01T07:22:18.144Z,91968.00
2022-10-01T07:24:45.908Z,91968.91
2022-10-01T07:27:14.398Z,91969.91
2022-10-01T07:29:41.974Z,91968.59
2022-10-01T07:32:10.580Z,91955.03
2022-10-01T07:34:40.359Z,91962.03
2022-10-01T07:37:07.593Z,91954.13
2022-10-01T07:39:34.643Z,91950.03
2022-10-01T07:42:01.393Z,91959.09
2022-10-01T07:44:29.489Z,91950.69
2022-10-01T07:46:57.001Z,91966.97
2022-10-01T07:49:25.239Z,91946.13
2022-10-01T07:51:53.372Z,91935.03
2022-10-01T07:54:21.842Z,91934.84
2022-10-01T07:56:49.660Z,91937.78
2022-10-01T07:59:16.811Z,91926.16
2022-10-01T08:01:43.515Z,91935.44
2022-10-01T08:04:28.693Z,91936.16
2022-10-01T08:06:55.258Z,91941.19
2022-10-01T08:09:21.911Z,91922.75
2022-10-01T08:11:48.935Z,91929.16
2022-10-01T08:14:17.922Z,91934.22
2022-10-01T08:16:49.214Z,91917.69
2022-10-01T08:19:16.483Z,91912.72
2022-10-01T08:21:43.178Z,91923.44
2022-10-01T08:24:09.968Z,91908.78
2022-10-01T08:26:36.754Z,91932.19
2022-10-01T08:29:03.585Z,91926.13
2022-10-01T08:31:30.620Z,91934.72
2022-10-01T08:33:58.055Z,91920.91
2022-10-01T08:36:24.845Z,91921.06
2022-10-01T08:38:51.544Z,91922.16
2022-10-01T08:41:44.881Z,91923.59
2022-10-01T08:44:20.207Z,91917.91
2022-10-01T08:46:49.543Z,91911.50
2022-10-01T08:49:21.024Z,91910.66
2022-10-01T08:52:07.219Z,91933.84
2022-10-01T08:54:46.575Z,91927.53
2022-10-01T08:57:18.556Z,91927.69
2022-10-01T08:59:49.018Z,91938.44
2022-10-01T09:02:26.115Z,91941.44
2022-10-01T09:05:01.544Z,91941.22
2022-10-01T09:08:06.180Z,91948.50
2022-10-01T09:10:44.708Z,91950.53
2022-10-01T09:13:30.076Z,91950.06
2022-10-01T09:15:56.841Z,91951.88
2022-10-01T09:18:48.220Z,91958.19
2022-10-01T09:21:22.553Z,91969.47
2022-10-01T09:24:03.383Z,91940.41
2022-10-01T09:26:31.027Z,91960.16
2022-10-01T09:29:01.263Z,91951.38
2022-10-01T09:31:40.983Z,91949.69
2022-10-01T09:34:26.873Z,91952.78
2022-10-01T09:37:21.635Z,91954.25
2022-10-01T09:40:19.351Z,91952.03
2022-10-01T09:42:47.659Z,91939.16
2022-10-01T09:45:15.961Z,91964.72
2022-10-01T09:47:48.618Z,91952.78
2022-10-01T09:50:19.857Z,91964.25
2022-10-01T09:52:50.077Z,91968.19
2022-10-01T09:55:51.857Z,91952.59
2022-10-01T09:58:23.192Z,91983.72
2022-10-01T10:00:53.691Z,91976.41
2022-10-01T10:03:30.459Z,91976.19
2022-10-01T10:05:59.942Z,91960.22
2022-10-01T10:08:47.147Z,91913.03
2022-10-01T10:11:22.908Z,91909.47
2022-10-01T10:13:52.998Z,91923.63
2022-10-01T10:16:26.427Z,91921.47
2022-10-01T10:19:02.490Z,91926.56
2022-10-01T10:21:37.950Z,91925.72
2022-10-01T10:24:07.405Z,91922.91
2022-10-01T10:26:39.938Z,91919.78
2022-10-01T10:29:24.413Z,91923.44
2022-10-01T10:31:51.673Z,91920.72
2022-10-01T10:34:24.434Z,91912.75
2022-10-01T10:36:57.878Z,91911.34
2022-10-01T10:39:29.584Z,91927.19
2022-10-01T10:41:59.713Z,91927.00
2022-10-01T10:44:32.031Z,91917.94
2022-10-01T10:47:05.408Z,91933.50
2022-10-01T10:49:40.965Z,91919.88
2022-10-01T10:52:32.495Z,91930.69
2022-10-01T10:55:00.994Z,91951.81
2022-10-01T10:57:29.132Z,91946.34
2022-10-01T11:00:00.137Z,91938.75
2022-10-01T11:02:32.367Z,91946.28
2022-10-01T11:05:12.010Z,91969.13
2022-10-01T11:07:43.091Z,91942.78
2022-10-01T11:10:43.131Z,91953.75
2022-10-01T11:13:12.878Z,91958.22
2022-10-01T11:15:56.298Z,91946.69
2022-10-01T11:18:25.970Z,91950.22
2022-10-01T11:21:11.024Z,91952.97
2022-10-01T11:23:43.888Z,91954.38
2022-10-01T11:26:10.830Z,91964.59
2022-10-01T11:29:02.299Z,91958.13
2022-10-01T11:31:35.190Z,91940.47
2022-10-01T11:34:27.762Z,91942.44
2022-10-01T11:37:01.281Z,91956.97
2022-10-01T11:39:32.187Z,91952.19
2022-10-01T11:42:05.693Z,91939.31
2022-10-01T11:44:53.817Z,91942.47
2022-10-01T11:47:23.368Z,91930.38
2022-10-01T11:49:59.901Z,91918.88
2022-10-01T11:52:38.979Z,91899.13
2022-10-01T11:55:34.901Z,91899.31
2022-10-01T11:58:32.443Z,91895.50
2022-10-01T12:01:04.129Z,91887.72
2022-10-01T12:03:42.103Z,91889.72
2022-10-01T12:06:14.961Z,91885.09
2022-10-01T12:08:48.444Z,91875.78
2022-10-01T12:11:24.394Z,91893.00
2022-10-01T12:14:00.706Z,91898.69
2022-10-01T12:16:43.099Z,91878.00
2022-10-01T12:19:34.405Z,91880.88
2022-10-01T12:22:13.714Z,91872.25
2022-10-01T12:24:45.380Z,91866.78
2022-10-01T12:27:33.566Z,91867.69
2022-10-01T12:30:09.900Z,91860.06
2022-10-01T12:32:49.735Z,91843.44
2022-10-01T12:35:35.794Z,91832.91
2022-10-01T12:38:41.962Z,91817.19
2022-10-01T12:41:27.189Z,91840.13
2022-10-01T12:44:19.354Z,91834.56
2022-10-01T12:47:01.208Z,91827.47
2022-10-01T12:49:36.914Z,91822.69
2022-10-01T12:52:35.485Z,91817.56
2022-10-01T12:55:30.950Z,91806.50
2022-10-01T12:58:11.109Z,91795.38
2022-10-01T13:00:49.630Z,91775.75
2022-10-01T13:03:47.456Z,91767.97
2022-10-01T13:06:42.179Z,91769.09
2022-10-01T13:09:29.775Z,91760.16
2022-10-01T13:11:59.428Z,91759.25
2022-10-01T13:14:26.307Z,91756.81
2022-10-01T13:17:02.973Z,91758.41
2022-10-01T13:19:51.238Z,91757.06
2022-10-01T13:22:37.132Z,91754.22
2022-10-01T13:25:18.951Z,91756.19
2022-10-01T13:27:59.657Z,91731.72
2022-10-01T13:30:33.514Z,91745.56
2022-10-01T13:33:01.302Z,91747.75
2022-10-01T13:35:31.580Z,91743.84
2022-10-01T13:37:59.700Z,91739.91
2022-10-01T13:40:34.886Z,91736.50
2022-10-01T13:43:24.495Z,91735.88
2022-10-01T13:45:53.646Z,91725.69
2022-10-01T13:48:23.751Z,91726.84
2022-10-01T13:50:58.057Z,91719.63
2022-10-01T13:53:27.043Z,91713.31
2022-10-01T13:55:54.727Z,91719.97
2022-10-01T13:58:30.099Z,91713.91
2022-10-01T14:01:00.167Z,91707.50
2022-10-01T14:03:50.864Z,91704.66
2022-10-01T14:06:24.789Z,91692.34
2022-10-01T14:09:00.582Z,91680.09
2022-10-01T14:11:49.455Z,91675.50
2022-10-01T14:15:14.091Z,91664.81
2022-10-01T14:17:43.206Z,91649.75
2022-10-01T14:20:18.004Z,91640.09
2022-10-01T14:22:59.929Z,91641.38
2022-10-01T14:25:32.196Z,91640.31
2022-10-01T14:28:10.213Z,91630.66
2022-10-01T14:30:48.994Z,91620.16
2022-10-01T14:33:34.259Z,91625.41
2022-10-01T14:36:17.788Z,91607.81
2022-10-01T14:38:44.629Z,91594.09
2022-10-01T14:41:20.269Z,91595.34
2022-10-01T14:43:47.208Z,91595.88
2022-10-01T14:46:17.077Z,91593.66
2022-10-01T14:48:44.619Z,91599.63
2022-10-01T14:51:31.112Z,91593.75
2022-10-01T14:54:00.408Z,91587.66
2022-10-01T14:56:28.570Z,91591.25
2022-10-01T14:59:03.012Z,91583.81
2022-10-01T15:01:29.684Z,91602.56
2022-10-01T15:03:56.540Z,91601.56
2022-10-01T15:06:28.067Z,91592.75
2022-10-01T15:09:02.590Z,91586.78
2022-10-01T15:11:31.833Z,91595.66
2022-10-01T15:14:04.996Z,91583.81
2022-10-01T15:16:33.795Z,91593.50
2022-10-01T15:19:03.938Z,91576.91
2022-10-01T15:21:38.052Z,91594.78
2022-10-01T15:24:08.189Z,91592.94
2022-10-01T15:26:35.164Z,91591.41
2022-10-01T15:29:13.622Z,91594.63
2022-10-01T15:31:41.454Z,91590.66
2022-10-01T15:34:13.050Z,91591.53
2022-10-01T15:36:41.395Z,91564.69
2022-10-01T15:39:39.567Z,91558.56
2022-10-01T15:42:28.223Z,91573.09
2022-10-01T15:45:07.209Z,91568.41
2022-10-01T15:47:50.256Z,91550.88
2022-10-01T15:50:20.895Z,91559.91
2022-10-01T15:53:11.844Z,91567.53
2022-10-01T15:55:41.764Z,91566.53
2022-10-01T15:58:11.753Z,91563.47
2022-10-01T16:00:38.360Z,91567.22
2022-10-01T16:03:05.088Z,91577.06
2022-10-01T16:05:45.971Z,91549.09
2022-10-01T16:08:21.438Z,91565.56
2022-10-01T16:11:09.874Z,91556.78
2022-10-01T16:13:39.418Z,91574.56
2022-10-01T16:16:29.170Z,91568.91
2022-10-01T16:19:20.622Z,91572.97
2022-10-01T16:22:26.111Z,91568.22
2022-10-01T16:24:54.794Z,91558.28
2022-10-01T16:27:35.674Z,91538.34
2022-10-01T16:30:32.425Z,91566.91
2022-10-01T16:33:02.485Z,91562.03
2022-10-01T16:35:35.839Z,91569.94
2022-10-01T16:38:06.762Z,91556.19
2022-10-01T16:40:39.167Z,91557.03
2022-10-01T16:43:10.406Z,91564.19
2022-10-01T16:45:38.908Z,91546.56
2022-10-01T16:48:14.044Z,91548.81
2022-10-01T16:50:41.625Z,91542.25
2022-10-01T16:53:26.836Z,91554.72
2022-10-01T16:55:55.987Z,91548.78
2022-10-01T16:58:23.082Z,91552.94
2022-10-01T17:00:49.829Z,91543.81
2022-10-01T17:03:19.782Z,91542.56
2022-10-01T17:05:47.001Z,91539.66
2022-10-01T17:08:15.211Z,91541.72
2022-10-01T17:10:53.780Z,91538.31
2022-10-01T17:13:20.416Z,91521.59
2022-10-01T17:15:48.532Z,91520.75
2022-10-01T17:18:15.224Z,91522.94
2022-10-01T17:20:42.120Z,91514.47
2022-10-01T17:23:11.638Z,91506.44
2022-10-01T17:25:39.572Z,91519.06
2022-10-01T17:28:11.637Z,91516.06
2022-10-01T17:30:43.333Z,91508.59
2022-10-01T17:33:11.728Z,91509.56
2022-10-01T17:35:43.459Z,91502.88
2022-10-01T17:38:11.267Z,91500.50
2022-10-01T17:40:42.122Z,91496.06
2022-10-01T17:43:14.541Z,91494.84
2022-10-01T17:45:42.158Z,91497.91
2022-10-01T17:48:09.725Z,91497.50
2022-10-01T17:50:43.799Z,91501.50
2022-10-01T17:53:14.984Z,91493.22
2022-10-01T17:55:42.582Z,91494.03
2022-10-01T17:58:10.327Z,91483.31
2022-10-01T18:00:37.378Z,91481.56
2022-10-01T18:03:04.233Z,91474.06
2022-10-01T18:05:30.973Z,91477.00
2022-10-01T18:07:57.646Z,91481.50
2022-10-01T18:10:24.412Z,91473.56
2022-10-01T18:12:51.170Z,91463.63
2022-10-01T18:15:20.797Z,91465.16
2022-10-01T18:17:52.130Z,91467.94
2022-10-01T18:20:22.779Z,91437.47
2022-10-01T18:22:50.145Z,91463.63
2022-10-01T18:25:19.453Z,91454.44
2022-10-01T18:27:50.229Z,91451.97
2022-10-01T18:30:17.887Z,91437.56
2022-10-01T18:32:50.864Z,91446.88
2022-10-01T18:35:28.378Z,91446.88
2022-10-01T18:37:58.443Z,91437.41
2022-10-01T18:40:34.295Z,91423.41
2022-10-01T18:43:06.737Z,91421.22
2022-10-01T18:45:42.848Z,91411.41
2022-10-01T18:48:40.525Z,91410.94
2022-10-01T18:51:24.529Z,91397.59
2022-10-01T18:53:58.467Z,91397.91
2022-10-01T18:56:33.506Z,91389.06
2022-10-01T18:59:15.514Z,91391.69
2022-10-01T19:02:12.617Z,91372.72
2022-10-01T19:04:53.639Z,91366.34
2022-10-01T19:07:41.781Z,91366.09
2022-10-01T19:10:08.402Z,91364.34
2022-10-01T19:12:35.052Z,91357.03
2022-10-01T19:15:22.301Z,91354.56
2022-10-01T19:18:24.349Z,91346.84
2022-10-01T19:21:23.575Z,91338.13
2022-10-01T19:23:53.244Z,91335.03
2022-10-01T19:26:26.689Z,91344.28
2022-10-01T19:29:35.405Z,91343.34
2022-10-01T19:32:07.481Z,91325.63
2022-10-01T19:34:45.807Z,91318.06
2022-10-01T19:37:37.143Z,91314.16
2022-10-01T19:40:36.206Z,91320.16
2022-10-01T19:43:26.377Z,91293.13
2022-10-01T19:46:05.184Z,91305.00
2022-10-01T19:48:47.982Z,91295.47
2022-10-01T19:51:18.937Z,91289.13
2022-10-01T19:54:01.119Z,91287.34
2022-10-01T19:56:34.509Z,91263.22
2022-10-01T19:59:07.951Z,91281.44
2022-10-01T20:01:39.231Z,91284.91
2022-10-01T20:04:18.402Z,91285.44
2022-10-01T20:06:47.006Z,91292.47
2022-10-01T20:09:20.668Z,91274.22
2022-10-01T20:12:29.359Z,91281.13
2022-10-01T20:15:12.641Z,91263.66
2022-10-01T20:17:42.307Z,91264.94
2022-10-01T20:20:24.351Z,91260.03
2022-10-01T20:23:11.127Z,91259.47
2022-10-01T20:25:53.116Z,91253.31
2022-10-01T20:28:47.156Z,91245.75
2022-10-01T20:31:28.137Z,91234.50
2022-10-01T20:34:17.898Z,91238.34
2022-10-01T20:36:56.311Z,91216.50
2022-10-01T20:39:30.543Z,91217.22
2022-10-01T20:41:58.416Z,91213.53
2022-10-01T20:44:28.494Z,91213.72
2022-10-01T20:47:02.222Z,91197.16
2022-10-01T20:49:43.593Z,91204.59
2022-10-01T20:52:29.073Z,91186.81
2022-10-01T20:55:16.003Z,91199.44
2022-10-01T20:57:54.734Z,91209.88
2022-10-01T21:00:23.808Z,91227.41
2022-10-01T21:03:08.578Z,91228.25
2022-10-01T21:05:41.610Z,91226.31
2022-10-01T21:08:38.161Z,91220.81
2022-10-01T21:11:11.602Z,91210.22
2022-10-01T21:13:50.458Z,91213.63
2022-10-01T21:16:26.406Z,91204.56
2022-10-01T21:19:17.409Z,91201.22
2022-10-01T21:21:44.051Z,91197.78
2022-10-01T21:24:38.873Z,91196.72
2022-10-01T21:27:47.658Z,91197.50
2022-10-01T21:30:16.094Z,91186.28
2022-10-01T21:33:08.340Z,91174.19
2022-10-01T21:36:09.124Z,91217.06
2022-10-01T21:38:50.284Z,91212.53
2022-10-01T21:41:43.716Z,91205.16
2022-10-01T21:44:45.437Z,91189.56
2022-10-01T21:47:21.292Z,91187.34
2022-10-01T21:50:15.677Z,91176.34
2022-10-01T21:53:06.765Z,91159.06
2022-10-01T21:55:58.852Z,91150.09
2022-10-01T21:58:47.485Z,91146.41
2022-10-01T22:01:37.944Z,91159.19
2022-10-01T22:04:20.192Z,91162.66
2022-10-01T22:06:53.341Z,91159.16
2022-10-01T22:09:32.433Z,91163.38
2022-10-01T22:12:00.921Z,91162.28
2022-10-01T22:14:28.754Z,91172.09
2022-10-01T22:17:11.726Z,91182.34
2022-10-01T22:19:43.159Z,91181.19
2022-10-01T22:22:13.099Z,91185.00
2022-10-01T22:24:47.883Z,91181.19
2022-10-01T22:27:37.132Z,91172.28
2022-10-01T22:30:18.184Z,91157.34
2022-10-01T22:32:55.174Z,91166.97
2022-10-01T22:35:31.476Z,91150.38
2022-10-01T22:37:58.122Z,91146.19
2022-10-01T22:40:31.504Z,91131.44
2022-10-01T22:43:05.363Z,91122.38
2022-10-01T22:46:13.713Z,91114.63
2022-10-01T22:48:49.120Z,91129.25
2022-10-01T22:51:27.366Z,91129.56
2022-10-01T22:54:03.245Z,91142.53
2022-10-01T22:56:46.612Z,91157.53
2022-10-01T22:59:43.953Z,91161.16
2022-10-01T23:02:48.747Z,91182.44
2022-10-01T23:05:41.062Z,91216.16
2022-10-01T23:08:35.049Z,91241.59
2022-10-01T23:11:07.520Z,91238.66
2022-10-01T23:14:04.747Z,91270.69
2022-10-01T23:16:57.363Z,91293.78
2022-10-01T23:19:38.879Z,91283.88
2022-10-01T23:22:25.374Z,91297.59
2022-10-01T23:25:15.552Z,91234.19
2022-10-01T23:28:00.425Z,91199.25
2022-10-01T23:30:44.324Z,91168.50
2022-10-01T23:33:10.973Z,91160.31
2022-10-01T23:35:58.251Z,91087.56
2022-10-01T23:38:31.087Z,91073.78
2022-10-01T23:41:04.706Z,91004.53
2022-10-01T23:43:36.996Z,90904.59
2022-10-01T23:46:13.370Z,90906.19
2022-10-01T23:48:50.958Z,90896.28
2022-10-01T23:51:43.464Z,90896.09
2022-10-01T23:54:31.298Z,90877.03
2022-10-01T23:57:07.652Z,90873.19
2022-10-01T23:59:41.341Z,90878.69
